createdAt,value
2022-09-18T00:00:27.910Z,95545.00
2022-09-18T00:05:55.654Z,95551.00
2022-09-18T00:11:27.956Z,95562.00
2022-09-18T00:16:56.561Z,95571.00
2022-09-18T00:22:24.714Z,95564.00
2022-09-18T00:27:52.357Z,95573.00
2022-09-18T00:33:20.731Z,95577.00
2022-09-18T00:38:48.996Z,95575.00
2022-09-18T00:44:49.908Z,95584.00
2022-09-18T00:50:23.891Z,95579.00
2022-09-18T00:55:52.231Z,95584.00
2022-09-18T01:01:20.097Z,95575.00
2022-09-18T01:07:22.414Z,95576.00
2022-09-18T01:12:59.694Z,95581.00
2022-09-18T01:18:55.061Z,95582.00
2022-09-18T01:24:45.272Z,95589.00
2022-09-18T01:30:13.828Z,95581.00
2022-09-18T01:35:52.981Z,95592.00
2022-09-18T01:41:26.857Z,95583.00
2022-09-18T01:46:59.108Z,95567.00
2022-09-18T01:52:43.729Z,95579.00
2022-09-18T01:58:21.074Z,95578.00
2022-09-18T02:03:55.912Z,95583.00
2022-09-18T02:09:24.314Z,95586.00
2022-09-18T02:14:59.175Z,95575.00
2022-09-18T02:20:39.842Z,95569.00
2022-09-18T02:26:09.848Z,95559.00
2022-09-18T02:31:39.957Z,95560.00
2022-09-18T02:37:11.442Z,95562.00
2022-09-18T02:43:03.400Z,95557.00
2022-09-18T02:49:15.061Z,95554.00
2022-09-18T02:55:04.569Z,95555.00
2022-09-18T03:00:32.857Z,95550.00
2022-09-18T03:06:03.778Z,95554.00
2022-09-18T03:11:35.037Z,95552.00
2022-09-18T03:17:03.612Z,95549.00
2022-09-18T03:22:33.701Z,95559.00
2022-09-18T03:28:01.659Z,95556.00
2022-09-18T03:33:41.800Z,95558.00
2022-09-18T03:39:09.912Z,95559.00
2022-09-18T03:44:39.151Z,95554.00
2022-09-18T03:50:16.678Z,95554.00
2022-09-18T03:55:44.602Z,95557.00
2022-09-18T04:01:31.097Z,95562.00
2022-09-18T04:07:18.404Z,95567.00
2022-09-18T04:12:47.832Z,95557.00
2022-09-18T04:18:26.884Z,95557.00
2022-09-18T04:23:59.937Z,95564.00
2022-09-18T04:29:28.262Z,95576.00
2022-09-18T04:34:56.484Z,95580.00
2022-09-18T04:40:26.870Z,95572.00
2022-09-18T04:45:55.594Z,95573.00
2022-09-18T04:51:23.842Z,95585.00
2022-09-18T04:56:51.581Z,95580.00
2022-09-18T05:02:20.498Z,95568.00
2022-09-18T05:07:48.751Z,95588.00
2022-09-18T05:13:18.597Z,95595.00
2022-09-18T05:19:04.604Z,95600.00
2022-09-18T05:24:33.158Z,95592.00
2022-09-18T05:30:01.399Z,95591.00
2022-09-18T05:35:55.037Z,95603.00
2022-09-18T05:41:22.883Z,95598.00
2022-09-18T05:46:52.290Z,95612.00
2022-09-18T05:52:20.149Z,95603.00
2022-09-18T05:57:53.864Z,95606.00
2022-09-18T06:03:22.048Z,95600.00
2022-09-18T06:08:49.908Z,95610.00
2022-09-18T06:14:20.607Z,95605.00
2022-09-18T06:19:50.447Z,95609.00
2022-09-18T06:25:21.691Z,95607.00
2022-09-18T06:30:49.618Z,95609.00
2022-09-18T06:36:18.684Z,95614.00
2022-09-18T06:42:01.115Z,95616.00
2022-09-18T06:47:48.869Z,95620.00
2022-09-18T06:53:16.864Z,95612.00
2022-09-18T06:58:55.029Z,95623.00
2022-09-18T07:04:23.385Z,95612.00
2022-09-18T07:09:52.948Z,95622.00
2022-09-18T07:15:35.558Z,95637.00
2022-09-18T07:21:07.109Z,95631.00
2022-09-18T07:26:40.881Z,95624.00
2022-09-18T07:32:10.687Z,95639.00
2022-09-18T07:37:39.927Z,95644.00
2022-09-18T07:43:18.735Z,95649.00
2022-09-18T07:48:52.674Z,95652.00
2022-09-18T07:54:27.696Z,95640.00
2022-09-18T08:00:01.267Z,95640.00
2022-09-18T08:05:36.958Z,95647.00
2022-09-18T08:11:04.917Z,95648.00
2022-09-18T08:16:56.222Z,95646.00
2022-09-18T08:22:42.405Z,95644.00
2022-09-18T08:28:10.968Z,95648.00
2022-09-18T08:33:47.661Z,95655.00
2022-09-18T08:39:16.079Z,95639.00
2022-09-18T08:54:16.959Z,95649.00
2022-09-18T09:00:23.576Z,95669.00
2022-09-18T09:06:15.579Z,95651.00
2022-09-18T09:12:25.268Z,95648.00
2022-09-18T09:18:19.370Z,95658.00
2022-09-18T09:24:21.225Z,95651.00
2022-09-18T09:30:20.795Z,95649.00
2022-09-18T09:36:16.376Z,95655.00
2022-09-18T09:42:33.639Z,95651.00
2022-09-18T09:48:22.617Z,95647.00
2022-09-18T09:53:55.889Z,95645.00
2022-09-18T09:59:38.963Z,95654.00
2022-09-18T10:05:44.598Z,95633.00
2022-09-18T10:11:14.427Z,95648.00
2022-09-18T10:16:50.164Z,95647.00
2022-09-18T10:22:23.239Z,95662.00
2022-09-18T10:27:51.265Z,95658.00
2022-09-18T10:33:45.922Z,95660.00
2022-09-18T10:39:36.584Z,95657.00
2022-09-18T10:45:24.628Z,95659.00
2022-09-18T10:51:00.735Z,95659.00
2022-09-18T10:56:40.399Z,95660.00
2022-09-18T11:02:20.365Z,95648.00
2022-09-18T11:07:51.329Z,95655.00
2022-09-18T11:13:24.991Z,95649.00
2022-09-18T11:19:12.668Z,95651.00
2022-09-18T11:24:47.303Z,95650.00
2022-09-18T11:30:31.651Z,95648.00
2022-09-18T11:36:06.847Z,95645.00
2022-09-18T11:41:39.107Z,95635.00
2022-09-18T11:47:20.087Z,95640.00
2022-09-18T11:53:03.572Z,95629.00
2022-09-18T11:58:35.182Z,95625.00
2022-09-18T12:04:33.387Z,95627.00
2022-09-18T12:10:10.675Z,95620.00
2022-09-18T12:15:41.826Z,95622.00
2022-09-18T12:21:17.644Z,95635.00
2022-09-18T12:27:00.821Z,95629.00
2022-09-18T12:33:02.950Z,95634.00
2022-09-18T12:39:18.530Z,95635.00
2022-09-18T12:45:06.395Z,95623.00
2022-09-18T12:51:03.381Z,95622.00
2022-09-18T12:56:52.647Z,95624.00
2022-09-18T13:03:06.711Z,95619.00
2022-09-18T13:08:54.885Z,95620.00
2022-09-18T13:14:37.814Z,95602.00
2022-09-18T13:20:28.386Z,95600.00
2022-09-18T13:25:58.809Z,95602.00
2022-09-18T13:31:35.099Z,95592.00
2022-09-18T13:37:07.569Z,95598.00
2022-09-18T13:42:40.601Z,95581.00
2022-09-18T13:48:24.944Z,95584.00
2022-09-18T13:54:11.382Z,95573.00
2022-09-18T13:59:48.242Z,95567.00
2022-09-18T14:05:34.433Z,95558.00
2022-09-18T14:11:17.623Z,95560.00
2022-09-18T14:16:46.161Z,95540.00
2022-09-18T14:22:38.115Z,95546.00
2022-09-18T14:28:06.378Z,95563.00
2022-09-18T14:33:35.394Z,95549.00
2022-09-18T14:39:03.248Z,95531.00
2022-09-18T14:44:32.951Z,95530.00
2022-09-18T14:50:00.800Z,95530.00
2022-09-18T14:55:41.847Z,95524.00
2022-09-18T15:01:21.257Z,95521.00
2022-09-18T15:06:53.572Z,95524.00
2022-09-18T15:12:26.224Z,95511.00
2022-09-18T15:17:55.199Z,95505.00
2022-09-18T15:23:39.369Z,95505.00
2022-09-18T15:29:26.916Z,95510.00
2022-09-18T15:34:55.305Z,95500.00
2022-09-18T15:40:31.919Z,95507.00
2022-09-18T15:46:13.450Z,95506.00
2022-09-18T15:51:41.288Z,95510.00
2022-09-18T15:57:15.859Z,95490.00
2022-09-18T16:02:43.853Z,95501.00
2022-09-18T16:08:22.005Z,95499.00
2022-09-18T16:13:53.325Z,95490.00
2022-09-18T16:19:21.236Z,95479.00
2022-09-18T16:24:49.747Z,95487.00
2022-09-18T16:30:17.746Z,95486.00
2022-09-18T16:35:46.792Z,95476.00
2022-09-18T16:41:14.762Z,95482.00
2022-09-18T16:46:48.942Z,95467.00
2022-09-18T16:52:16.849Z,95464.00
2022-09-18T16:57:44.763Z,95474.00
2022-09-18T17:03:15.746Z,95464.00
2022-09-18T17:08:46.817Z,95462.00
2022-09-18T17:14:15.828Z,95465.00
2022-09-18T17:19:44.317Z,95463.00
2022-09-18T17:25:14.464Z,95452.00
2022-09-18T17:30:43.935Z,95458.00
2022-09-18T17:36:16.641Z,95462.00
2022-09-18T17:41:46.652Z,95461.00
2022-09-18T17:47:15.765Z,95461.00
2022-09-18T17:52:44.831Z,95459.00
2022-09-18T17:58:15.181Z,95464.00
2022-09-18T18:03:45.344Z,95464.00
2022-09-18T18:09:17.523Z,95474.00
2022-09-18T18:14:47.030Z,95481.00
2022-09-18T18:20:17.929Z,95475.00
2022-09-18T18:25:47.752Z,95481.00
2022-09-18T18:31:17.651Z,95479.00
2022-09-18T18:36:53.670Z,95480.00
2022-09-18T18:42:23.310Z,95484.00
2022-09-18T18:47:53.165Z,95491.00
2022-09-18T18:53:22.532Z,95496.00
2022-09-18T18:59:01.348Z,95491.00
2022-09-18T19:04:33.641Z,95487.00
2022-09-18T19:10:03.045Z,95484.00
2022-09-18T19:15:35.548Z,95488.00
2022-09-18T19:21:10.744Z,95482.00
2022-09-18T19:26:45.983Z,95485.00
2022-09-18T19:32:24.406Z,95486.00
2022-09-18T19:37:57.542Z,95477.00
2022-09-18T19:43:35.973Z,95473.00
2022-09-18T19:49:05.557Z,95462.00
2022-09-18T19:54:35.161Z,95462.00
2022-09-18T20:00:06.030Z,95461.00
2022-09-18T20:05:43.744Z,95448.00
2022-09-18T20:11:16.082Z,95453.00
2022-09-18T20:16:45.348Z,95441.00
2022-09-18T20:22:17.184Z,95429.00
2022-09-18T20:27:53.157Z,95430.00
2022-09-18T20:33:24.162Z,95415.00
2022-09-18T20:38:58.055Z,95430.00
2022-09-18T20:44:27.032Z,95414.00
2022-09-18T20:49:54.961Z,95413.00
2022-09-18T20:55:24.196Z,95415.00
2022-09-18T21:00:53.739Z,95416.00
2022-09-18T21:06:23.710Z,95420.00
2022-09-18T21:11:52.572Z,95413.00
2022-09-18T21:17:21.192Z,95407.00
2022-09-18T21:23:08.461Z,95404.00
2022-09-18T21:28:37.052Z,95397.00
2022-09-18T21:34:05.710Z,95402.00
2022-09-18T21:39:34.956Z,95397.00
2022-09-18T21:50:49.265Z,95393.00
2022-09-18T21:56:20.469Z,95391.00
2022-09-18T22:01:53.004Z,95395.00
2022-09-18T22:07:21.409Z,95372.00
2022-09-18T22:12:49.450Z,95396.00
2022-09-18T22:18:17.261Z,95409.00
2022-09-18T22:23:45.301Z,95405.00
2022-09-18T22:29:23.857Z,95413.00
2022-09-18T22:34:53.425Z,95405.00
2022-09-18T22:40:21.310Z,95397.00
2022-09-18T22:45:49.067Z,95394.00
2022-09-18T22:51:20.622Z,95394.00
2022-09-18T22:56:52.296Z,95397.00
2022-09-18T23:02:20.941Z,95389.00
2022-09-18T23:07:49.088Z,95391.00
2022-09-18T23:13:16.889Z,95381.00
2022-09-18T23:18:58.034Z,95378.00
2022-09-18T23:24:26.818Z,95379.00
2022-09-18T23:29:54.537Z,95373.00
2022-09-18T23:35:22.771Z,95376.00
2022-09-18T23:40:50.476Z,95384.00
2022-09-18T23:46:19.412Z,95377.00
2022-09-18T23:51:47.285Z,95383.00
2022-09-18T23:57:15.042Z,95398.00
